Flight Track Log - Related Links

Times and Time Zones

All times are in EDT time to prevent confusion due to time zone crossing. See the N30TL flight status page for this flight to view local times or setup timezone preferences in your user account.

Time Position Orientation Groundspeed Altitude Reporting Facility
EDT Latitude Longitude Course Direction KTS MPH feet Rate Location/Type
Thu 08:32:02 AM 27.7483 -97.4822 129° Southeast 208 239 1,500  Level Houston Center
Thu 08:32:20 AM 27.7361 -97.4650 129° Southeast 211 243 2,700 3,469 Climbing Houston Center
Thu 08:33:06 AM 27.7297 -97.4108 98° East 271 312 5,200 3,084 Climbing Houston Center
Thu 08:34:07 AM 27.8058 -97.3642 28° Northeast 324 373 8,200 2,683 Climbing Houston Center
Thu 08:35:09 AM 27.8919 -97.3372 15° North 322 371 10,700 2,032 Climbing Houston Center
Thu 08:36:11 AM 27.9803 -97.3083 16° North 331 381 12,400 1,887 Climbing Houston Center
Thu 08:37:13 AM 28.0997 -97.2711 15° North 364 419 14,600 2,098 Climbing Houston Center
Thu 08:38:14 AM 28.1819 -97.1933 40° Northeast 380 437 16,700 2,049 Climbing Houston Center
Thu 08:39:16 AM 28.2728 -97.1250 34° Northeast 390 449 18,800 2,032 Climbing Houston Center
Thu 08:40:18 AM 28.3683 -97.0547 33° Northeast 407 468 20,900 1,742 Climbing Houston Center
Thu 08:41:20 AM 28.4622 -96.9844 33° Northeast 406 467 22,400 1,024 Climbing Houston Center
Thu 08:42:21 AM 28.5611 -96.9119 33° Northeast 421 484 23,000 293 Climbing Houston Center
Thu 08:43:23 AM 28.6664 -96.8317 34° Northeast 450 518 23,000  Level Houston Center
Thu 08:44:25 AM 28.7997 -96.7319 33° Northeast 477 549 23,000 -677 Level Houston Center
Thu 08:45:27 AM 28.9072 -96.6511 33° Northeast 469 540 21,600 -1,935 Descending Houston Center
Thu 08:46:29 AM 29.0075 -96.5767 33° Northeast 440 506 19,000 -2,565 Descending Houston Center
Thu 08:47:31 AM 29.1064 -96.5022 33° Northeast 431 496 16,300 -2,516 Descending Houston Center
Thu 08:48:33 AM 29.2006 -96.4294 34° Northeast 417 480 13,800 -2,661 Descending Houston Center
Thu 08:49:35 AM 29.3117 -96.3456 33° Northeast 405 466 10,800 -2,250 Descending Houston Center
Thu 08:50:33 AM 29.3900 -96.2872 33° Northeast 347 399 9,300 -1,636 Descending Houston Center
Thu 08:51:03 AM 29.4333 -96.2536 34° Northeast 334 384 8,400 -1,292 Descending Houston Center
Thu 08:51:38 AM 29.4714 -96.2242 34° Northeast 337 388 7,900 -387 Descending Houston Center
Thu 08:52:05 AM 29.5081 -96.1947 35° Northeast 316 364 8,000  Climbing Houston Center
Thu 08:52:40 AM 29.5453 -96.1667 33° Northeast 326 375 7,900  Descending Houston Center
Thu 08:53:06 AM 29.5692 -96.1233 58° Northeast 309 356 8,000 -387 Climbing Houston Center
Thu 08:53:42 AM 29.5867 -96.0856 62° Northeast 290 334 7,500 -1,574 Descending Houston Center
Thu 08:54:07 AM 29.6289 -96.0611 27° Northeast 296 341 6,400 -2,323 Descending Houston Center
Thu 08:54:44 AM 29.6778 -96.0500 11° North 295 339 5,100 -2,066 Descending Houston Center
Thu 08:55:08 AM 29.7092 -96.0450 North 298 343 4,300 -1,935 Descending Houston Center
Thu 08:55:46 AM 29.7606 -96.0472 358° North 300 345 3,100 -1,279 Descending Houston Center
Thu 08:56:09 AM 29.7939 -96.0522 353° North 287 330 3,000 -290 Descending Houston Center
Thu 08:56:48 AM 29.8392 -96.0572 355° North 290 334 2,800 -590 Descending Houston Center
Thu 08:57:10 AM 29.8733 -96.0481 13° North 296 341 2,400 -871 Descending Houston Center
Thu 08:57:50 AM 29.9158 -96.0306 20° North 293 337 1,900 -393 Descending Houston Center
Thu 08:58:11 AM 29.9464 -96.0203 16° North 278 320 2,000  Climbing Houston Center
Thu 08:58:52 AM 29.9858 -96.0050 19° North 275 316 1,900  Descending Houston Center
Thu 08:59:12 AM 30.0056 -95.9775 50° Northeast 234 269 2,000 97 Climbing Houston Center
Thu 08:59:54 AM 30.0092 -95.9469 82° East 237 273 2,000  Level Houston Center
Thu 09:00:14 AM 30.0064 -95.9147 96° East 192 221 2,000  Level Houston Center
Thu 09:00:56 AM 29.9797 -95.9025 158° South 182 209 2,000  Level Houston Center
Thu 09:01:15 AM 29.9653 -95.9000 171° South 164 189 2,000  Level Houston Center
Thu 09:01:58 AM 29.9372 -95.9011 182° South 159 183 2,000  Level Houston Center
Thu 09:02:16 AM 29.9256 -95.9000 175° South 129 148 2,000 -194 Level Houston Center
Thu 09:03:00 AM 29.9011 -95.9000 180° South 140 161 1,800 -295 Descending Houston Center
Thu 09:03:17 AM 29.8897 -95.8992 176° South 97 112 1,700 -484 Descending Houston Center
Thu 09:04:02 AM 29.8728 -95.9000 182° South 120 138 1,300 -590 Descending Houston Center
Thu 09:04:18 AM 29.8625 -95.9000 180° South 102 117 1,100 -484 Descending Houston Center
Thu 09:05:04 AM 29.8428 -95.9003 181° South 109 125 800 -391 Descending Houston Center

Login

Don't have an account? Register now (free) for customized features, flight alerts, and more!